Langley Air Force Base Hampton US
ICAO: KLFI
IATA: LFI
Category: Large
Scheduled Services: No

Elevation: 11 ft
TransAlt. 18000 ft.

Airport Communications:
NORFOLK APP/DEP:124.9
ATIS:27.01
CLNC DEL:118.85
GND:121.7
NASA OPS:123.375
PMSV METRO:23.98
CNSOLIDATED CMD POST:25.125
PTD:141.75
TWR:125

KLFI Zoom In..

If Map Doesn't Load, Click Here

Runways:

(A) RW 08 length 10002 ft width 150 ft
ILS 109.90 / hdg 78

(B) RW 26 length 10002 ft width 150 ft
ILS 109.90 / hdg 258

Location; KLFI
Day. 21 / Time. 15.56 Zulu
* Altimeter: 30.23
* Temperature: 26° c. 78.8°f.
* Wind from: 100° Speed 03 kn.
Dewpoint: 20° c.
Visibility: 10 Statute Miles.
Clouds: Few 2500 ft.

KLFI 211556Z 10003KT 10SM FEW025 26/20 A3023 RMK AO2A SLP244 T02590197 $


Wind From 100°
Speed 03 kn.

 
 
jpsmedia.com for Web Design worldairports.se 2018   terms of use